Latest Coastal Weather Observations for Laverton

IDV60701

Issued at 11:02 am EST Sunday 24 July 2016 (issued every 10 minutes, with the page automatically refreshed every 10 minutes)

About coastal observations | Map of coastal stations | Coastal observations for VIC | Marine services | Other Formats
Station Details ID: 087031 Name: LAVERTON RAAF Lat: -37.86 Lon: 144.76 Height: 20.1 m
Data from the previous 72 hours. | See also: Recent months at Laverton
Date/Time
EST
Temp
°C
Wind Pressure Rain since
9am
mm
Weather Cloud Vis
km
Sea
Height
m
Swell
Dir  Spd
kts
Gust
kts
hPa Trend Height
m
Period
s
Dir
24/11:00am 10.2 NNW 17 23 1009.5 - 0.0 - Partly cloudy 10 - - - -
24/10:44am 10.1 NNW 15 25 1009.7 - 0.0 - Cloudy 10 - - - -
24/10:30am 9.5 NNW 15 24 1009.9 - 0.0 - Cloudy 10 - - - -
24/10:00am 9.0 N 11 17 1009.9 - 0.0 - Partly cloudy 10 - - - -
24/09:30am 8.2 N 8 12 1010.1 - 0.0 - Cloudy 10 - - - -
24/09:00am 6.4 N 8 11 1010.4 - 1.0 - Mostly clear 10 - - - -
24/08:30am 5.5 N 8 12 1010.5 - 1.0 - - 10 - - - -
24/08:00am 4.5 N 8 11 1010.5 - 1.0 - - 10 - - - -
24/07:30am 3.9 N 8 12 1010.6 - 1.0 - - 10 - - - -
24/07:00am 3.5 N 8 11 1010.8 - 1.0 - - 10 - - - -
24/06:30am 3.7 N 7 10 1010.7 - 1.0 - - 10 - - - -
24/06:00am 3.4 NNE 8 10 1010.7 - 1.0 - - 10 - - - -
24/05:30am 3.3 NNE 6 7 1010.9 - 1.0 - Partly cloudy 10 - - - -
24/05:00am 3.7 NNE 6 9 1011.2 - 1.0 - - 10 - - - -
24/04:30am 4.5 N 5 8 1011.6 - 1.0 - Partly cloudy 10 - - - -
24/04:00am 4.3 N 8 11 1012.0 - 1.0 - Partly cloudy 10 - - - -
24/03:30am 3.2 NNW 6 8 1012.2 - 1.0 - - 10 - - - -
24/03:00am 4.2 NNW 7 9 1012.2 - 1.0 - - 10 - - - -
24/02:30am 3.7 NNW 7 8 1012.3 - 1.0 - - 10 - - - -
24/02:00am 4.4 NNW 9 12 1012.3 - 1.0 - - 10 - - - -
24/01:30am 3.3 NNW 5 7 1012.2 - 1.0 - - 10 - - - -
24/01:00am 3.4 NW 7 8 1012.4 - 1.0 - - 10 - - - -
24/12:30am 3.9 NNW 5 7 1012.6 - 1.0 - - 10 - - - -
24/12:00am 4.5 NNW 4 6 1012.8 - 1.0 - - 10 - - - -
 
Date/Time
EST
Temp
°C
Wind Pressure Rain since
9am
mm
Weather Cloud Vis
km
Sea
Height
m
Swell
Dir  Spd
kts
Gust
kts
hPa Trend Height
m
Period
s
Dir
23/11:30pm 4.8 NW 6 7 1012.9 - 1.0 - Partly cloudy 10 - - - -
23/11:00pm 5.5 NW 6 9 1013.1 - 1.0 - Partly cloudy 10 - - - -
23/10:30pm 5.7 NW 5 6 1013.2 - 1.0 - Partly cloudy 10 - - - -
23/10:00pm 6.2 WNW 6 8 1013.2 - 1.0 - Cloudy 10 - - - -
23/09:30pm 6.1 WNW 7 9 1013.0 - 1.0 - Partly cloudy 10 - - - -
23/09:00pm 6.8 NW 8 10 1013.0 - 1.0 - Cloudy 10 - - - -
23/08:30pm 7.2 WNW 10 14 1012.8 - 1.0 - Partly cloudy 10 - - - -
23/08:00pm 7.1 WNW 9 13 1012.4 - 1.0 - Partly cloudy 10 - - - -
23/07:30pm 6.9 WNW 11 15 1012.3 - 1.0 - Partly cloudy 10 - - - -
23/07:00pm 7.0 W 13 19 1011.9 - 1.0 - Partly cloudy 10 - - - -
23/06:47pm 7.2 W 16 22 1011.9 - 1.0 - Partly cloudy 10 - - - -
23/06:30pm 7.9 W 9 12 1011.6 - 1.0 - Partly cloudy 10 - - - -
23/06:00pm 7.8 W 10 16 1011.2 - 1.0 - Cloudy 10 - - - -
23/05:30pm 8.1 W 10 13 1010.8 - 1.0 - Partly cloudy 10 - - - -
23/05:00pm 8.0 W 9 14 1010.3 - 1.0 - Partly cloudy 10 - - - -
23/04:30pm 8.2 W 15 21 1009.8 - 1.0 - Partly cloudy 10 - - - -
23/04:00pm 7.7 W 12 17 1009.7 - 1.0 - Partly cloudy 10 - - - -
23/03:59pm 7.6 W 12 17 1009.7 - 1.0 - Partly cloudy 10 - - - -
23/03:39pm 7.6 WSW 13 26 1009.8 - 0.6 - Partly cloudy 7 - - - -
23/03:30pm 8.9 W 13 20 1009.2 - 0.4 - Partly cloudy 10 - - - -
23/03:00pm 8.1 W 17 27 1008.8 - 0.4 - Cloudy 10 - - - -
23/02:43pm 9.1 W 15 27 1008.4 - 0.4 - Partly cloudy 10 - - - -
23/02:30pm 9.7 W 16 23 1008.0 - 0.4 - Partly cloudy 10 - - - -
23/02:13pm 9.0 W 17 27 1007.9 - 0.4 - Partly cloudy 10 - - - -
23/02:00pm 7.9 W 21 33 1007.9 - 0.4 - Partly cloudy 4 - - - -
23/01:53pm 8.3 W 22 33 1007.9 - 0.2 - Partly cloudy 6 - - - -
23/01:30pm 9.3 WSW 20 30 1007.4 - 0.0 - Partly cloudy 10 - - - -
23/01:28pm 9.4 WSW 21 30 1007.4 - 0.0 - Partly cloudy 10 - - - -
23/01:24pm 10.0 W 21 30 1007.3 - 0.0 - Partly cloudy 10 - - - -
23/01:00pm 10.4 W 18 30 1007.0 - 0.0 - Partly cloudy 10 - - - -
23/12:53pm 9.8 W 19 30 1007.1 - 0.0 - - 10 - - - -
23/12:30pm 10.0 W 18 24 1007.2 - 0.0 - Partly cloudy 10 - - - -
23/12:01pm 9.9 W 17 27 1007.2 - 0.0 - - 10 - - - -
23/12:00pm 9.8 W 18 27 1007.1 - 0.0 - - 10 - - - -
23/11:51am 9.6 W 15 25 1007.1 - 0.0 - - 10 - - - -
23/11:30am 9.0 W 13 19 1007.3 - 0.0 - Partly cloudy 10 - - - -
23/11:03am 8.2 W 15 27 1007.2 - 0.0 - Partly cloudy 10 - - - -
23/11:00am 8.4 W 13 20 1007.3 - 0.0 - Partly cloudy 10 - - - -
23/10:39am 8.0 WSW 17 27 1007.1 - 0.0 - Partly cloudy 10 - - - -
23/10:30am 8.4 WSW 19 27 1006.8 - 0.0 - Partly cloudy 10 - - - -
23/10:21am 9.0 WSW 15 25 1006.4 - 0.0 - Partly cloudy 10 - - - -
23/10:00am 8.6 W 16 23 1006.0 - 0.0 - Partly cloudy 10 - - - -
23/09:43am 8.5 W 16 26 1005.7 - 0.0 - Partly cloudy 10 - - - -
23/09:30am 8.6 W 13 19 1005.3 - 0.0 - - 10 - - - -
23/09:00am 7.9 W 13 20 1004.6 - 7.0 - - 10 - - - -
23/08:30am 7.4 W 14 20 1003.9 - 7.0 - Partly cloudy 10 - - - -
23/08:13am 7.4 W 16 26 1003.5 - 7.0 - Partly cloudy 10 - - - -
23/08:00am 7.1 W 11 16 1003.4 - 7.0 - Partly cloudy 10 - - - -
23/07:30am 6.7 W 12 18 1002.7 - 7.0 - Partly cloudy 10 - - - -
23/07:08am 6.6 WNW 11 15 1002.1 - 7.0 - Partly cloudy 10 - - - -
23/07:00am 6.6 W 12 22 1001.8 - 7.0 - Partly cloudy 8 - - - -
23/06:52am 6.9 W 15 22 1002.2 - 6.8 - Partly cloudy 7 - - - -
23/06:30am 7.3 W 15 22 1001.3 - 6.6 - Partly cloudy 10 - - - -
23/06:00am 7.6 W 15 23 1000.3 - 6.6 - Mostly cloudy 10 - - - -
23/05:31am 8.0 W 17 27 999.3 - 6.6 - Partly cloudy 10 - - - -
23/05:30am 8.0 W 18 27 999.3 - 6.6 - Partly cloudy 10 - - - -
23/05:19am 8.1 W 15 28 998.9 - 6.6 - Partly cloudy 10 - - - -
23/05:00am 8.0 W 15 21 998.3 - 6.6 - Partly cloudy 10 - - - -
23/04:30am 8.2 W 15 20 997.8 - 6.6 - Partly cloudy 10 - - - -
23/04:00am 8.4 W 13 18 997.2 - 6.6 - Partly cloudy 10 - - - -
23/03:30am 8.1 W 15 24 996.7 - 6.6 - Partly cloudy 10 - - - -
23/03:00am 8.5 W 19 29 996.0 - 6.6 - Cloudy 10 - - - -
23/02:30am 9.0 W 21 31 995.2 - 6.6 - Partly cloudy 10 - - - -
23/02:14am 9.1 WNW 20 30 994.8 - 6.6 - Partly cloudy 10 - - - -
23/02:00am 9.4 WNW 20 29 993.9 - 6.6 - Partly cloudy 10 - - - -
23/01:30am 8.5 NW 19 24 993.1 - 6.6 - - 10 - - - -
23/01:00am 8.8 NW 21 27 993.0 - 6.6 - Partly cloudy 10 - - - -
23/12:30am 9.3 NW 12 26 993.5 - 6.6 - Partly cloudy 10 - - - -
23/12:00am 8.1 NW 13 19 993.3 - 6.6 Recent precip. Cloudy 10 - - - -
 
Date/Time
EST
Temp
°C
Wind Pressure Rain since
9am
mm
Weather Cloud Vis
km
Sea
Height
m
Swell
Dir  Spd
kts
Gust
kts
hPa Trend Height
m
Period
s
Dir
22/11:38pm 8.1 NW 17 21 993.2 - 6.6 - Partly cloudy 10 - - - -
22/11:30pm 8.3 WNW 17 23 993.2 - 6.4 - Partly cloudy 10 - - - -
22/11:19pm 8.8 W 14 30 993.7 - 6.2 - Partly cloudy 4 - - - -
22/11:18pm 8.9 W 13 30 993.8 - 6.0 - Partly cloudy 5 - - - -
22/11:17pm 9.1 W 12 30 993.9 - 5.8 - Partly cloudy 9 - - - -
22/11:00pm 9.2 W 8 11 993.5 - 5.4 - Partly cloudy 10 - - - -
22/10:30pm 9.5 W 12 17 993.8 - 5.0 - Partly cloudy 10 - - - -
22/10:23pm 9.6 W 12 17 993.7 - 4.8 - Partly cloudy 10 - - - -
22/10:00pm 10.1 W 7 13 994.0 - 3.2 - Partly cloudy 6 - - - -
22/09:48pm 10.4 N 5 7 993.7 - 2.4 - Partly cloudy 8 - - - -
22/09:32pm 10.8 NNW 5 8 993.8 - 2.0 - Partly cloudy 7 - - - -
22/09:30pm 10.8 N 6 8 994.0 - 2.0 - Partly cloudy 10 - - - -
22/09:00pm 10.5 N 5 8 994.2 - 1.6 - Cloudy 10 - - - -
22/08:30pm 9.8 NNW 7 8 994.7 - 1.6 - Partly cloudy 10 - - - -
22/08:00pm 9.7 NW 7 8 994.6 - 1.6 - Partly cloudy 10 - - - -
22/07:30pm 10.4 NW 10 12 995.0 - 1.6 - Cloudy 10 - - - -
22/07:00pm 10.6 NW 10 12 994.9 - 1.6 - Partly cloudy 10 - - - -
22/06:30pm 10.1 NW 9 11 995.1 - 1.6 - Partly cloudy 10 - - - -
22/06:03pm 10.4 W 13 19 995.5 - 1.6 - Partly cloudy 10 - - - -
22/06:00pm 10.4 W 14 19 995.6 - 1.4 Recent precip. Cloudy 10 - - - -
22/05:43pm 11.2 W 13 28 995.7 - 1.4 - Partly cloudy 7 - - - -
22/05:40pm 11.7 WNW 11 28 995.8 - 1.2 - Partly cloudy 9 - - - -
22/05:30pm 11.7 NW 9 12 995.1 - 0.8 - - 10 - - - -
22/05:00pm 12.5 WNW 9 12 994.7 - 0.8 - Partly cloudy 10 - - - -
22/04:30pm 12.4 NW 12 16 994.9 - 0.8 - Partly cloudy 10 - - - -
22/04:00pm 12.5 NW 13 17 994.7 - 0.8 - Partly cloudy 10 - - - -
22/03:30pm 12.9 WNW 14 20 994.9 - 0.8 - Partly cloudy 10 - - - -
22/03:00pm 12.7 WNW 15 21 995.0 - 0.8 Recent precip. Cloudy 10 - - - -
22/02:43pm 12.0 W 17 28 995.1 - 0.8 - Partly cloudy 10 - - - -
22/02:41pm 11.9 W 18 28 995.1 - 0.8 - Partly cloudy 10 - - - -
22/02:30pm 11.8 W 23 31 995.1 - 0.8 - Partly cloudy 6 - - - -
22/02:20pm 12.2 W 24 45 995.2 - 0.6 - Partly cloudy 6 - - - -
22/02:15pm 15.0 W 23 45 994.6 - 0.0 - Partly cloudy 10 - - - -
22/02:14pm 16.1 WNW 22 33 994.8 - 0.0 - Partly cloudy 10 - - - -
22/02:07pm 16.6 WNW 23 33 994.2 - 0.0 - Partly cloudy 10 - - - -
22/02:00pm 17.4 WNW 23 30 994.3 - 0.0 - Partly cloudy 10 - - - -
22/01:46pm 17.2 NW 19 29 994.2 - 0.0 - - 10 - - - -
22/01:30pm 17.0 NW 22 28 994.3 - 0.0 - - 10 - - - -
22/01:00pm 16.5 NW 21 31 994.4 - 0.0 - - 10 - - - -
22/12:30pm 16.3 NW 25 35 994.4 - 0.0 - - 10 - - - -
22/12:00pm 16.2 NW 20 30 995.1 - 0.0 - Cloudy 10 - - - -
22/11:33am 15.5 NW 21 31 995.4 - 0.0 - - 10 - - - -
22/11:30am 15.5 NW 22 31 995.4 - 0.0 - - 10 - - - -
22/11:00am 15.2 NW 21 34 995.8 - 0.0 - - 10 - - - -
22/10:32am 15.3 NW 21 31 995.7 - 0.0 - - 10 - - - -
22/10:30am 15.2 NW 20 27 995.8 - 0.0 - - 10 - - - -
22/10:00am 15.0 NW 21 30 996.2 - 0.0 - Partly cloudy 10 - - - -
22/09:35am 15.1 NW 21 31 996.6 - 0.0 - Partly cloudy 10 - - - -
22/09:30am 15.4 NW 22 30 996.1 - 0.0 - Partly cloudy 10 - - - -
22/09:21am 15.9 NW 18 29 996.7 - 0.0 - Partly cloudy 10 - - - -
22/09:00am 16.0 NW 15 20 996.6 - 3.0 - Cloudy 10 - - - -
22/08:30am 15.7 NW 14 18 996.6 - 3.0 - Partly cloudy 10 - - - -
22/08:00am 16.1 NW 16 21 996.6 - 3.0 - Partly cloudy 10 - - - -
22/07:30am 16.1 NW 14 19 997.0 - 3.0 - Cloudy 10 - - - -
22/07:00am 16.3 NNW 13 18 997.2 - 3.0 - Partly cloudy 10 - - - -
22/06:30am 15.7 N 9 16 997.5 - 2.8 - Cloudy 10 - - - -
22/06:00am 15.6 N 12 21 997.5 - 2.8 Rain Partly cloudy 9 - - - -
22/05:30am 16.0 N 14 19 997.4 - 1.8 - Partly cloudy 10 - - - -
22/05:00am 15.5 N 12 17 997.8 - 1.2 - Partly cloudy 10 - - - -
22/04:30am 16.3 N 13 22 998.3 - 0.4 - Partly cloudy 10 - - - -
22/04:00am 16.4 N 17 25 999.1 - 0.4 - Partly cloudy 10 - - - -
22/03:36am 16.2 N 18 29 999.8 - 0.4 - Partly cloudy 10 - - - -
22/03:30am 16.0 N 17 25 999.9 - 0.4 - Partly cloudy 10 - - - -
22/03:00am 15.1 NNE 16 24 1000.9 - 0.4 - Cloudy 10 - - - -
22/02:30am 14.9 NNE 18 26 1001.8 - 0.4 - - 10 - - - -
22/02:09am 14.8 NNE 19 29 1002.4 - 0.4 - - 10 - - - -
22/02:00am 14.8 N 18 27 1002.4 - 0.4 - - 10 - - - -
22/01:32am 14.8 N 18 32 1002.6 - 0.4 - - 10 - - - -
22/01:30am 14.7 N 18 27 1002.7 - 0.4 - - 10 - - - -
22/01:01am 15.2 N 22 34 1003.0 - 0.4 - - 10 - - - -
22/01:00am 15.2 N 22 31 1003.1 - 0.4 - - 10 - - - -
22/12:40am 15.7 N 16 26 1003.9 - 0.4 - - 10 - - - -
22/12:30am 15.8 N 13 22 1004.3 - 0.4 - - 10 - - - -
22/12:00am 15.8 N 11 17 1005.2 - 0.4 - Partly cloudy 10 - - - -
 
Date/Time
EST
Temp
°C
Wind Pressure Rain since
9am
mm
Weather Cloud Vis
km
Sea
Height
m
Swell
Dir  Spd
kts
Gust
kts
hPa Trend Height
m
Period
s
Dir
21/11:30pm 15.7 N 11 19 1005.7 - 0.4 - - 10 - - - -
21/11:00pm 15.2 N 11 18 1006.7 - 0.4 - - 10 - - - -
21/10:30pm 14.9 NNE 15 19 1006.6 - 0.4 - - 10 - - - -
21/10:16pm 15.0 N 17 30 1006.4 - 0.4 - - 10 - - - -
21/10:00pm 14.9 NNE 16 23 1006.7 - 0.4 - - 10 - - - -
21/09:30pm 14.4 NNE 15 22 1007.5 - 0.4 - - 10 - - - -
21/09:11pm 14.6 NNE 15 25 1007.6 - 0.4 - - 10 - - - -
21/09:00pm 14.8 NNE 15 22 1008.4 - 0.4 - Cloudy 10 - - - -
21/08:30pm 14.4 NNE 14 21 1008.6 - 0.4 - - 10 - - - -
21/08:00pm 14.5 NNE 12 20 1009.2 - 0.4 - - 10 - - - -
21/07:30pm 14.4 NNE 12 17 1009.4 - 0.4 - - 10 - - - -
21/07:00pm 14.2 NNE 10 14 1009.7 - 0.4 - - 10 - - - -
21/06:30pm 14.4 NNE 10 15 1010.3 - 0.4 - - 10 - - - -
21/06:00pm 14.7 NNE 11 15 1010.2 - 0.4 - Mostly clear 10 - - - -
21/05:30pm 14.9 NNE 9 13 1010.8 - 0.4 - - 10 - - - -
21/05:00pm 15.5 NNE 11 15 1010.8 - 0.4 - - 10 - - - -
21/04:30pm 16.1 NNE 8 11 1010.8 - 0.4 - - 10 - - - -
21/04:00pm 17.3 N 8 15 1010.9 - 0.4 - - 10 - - - -
21/03:30pm 17.9 N 12 18 1011.1 - 0.4 - - 10 - - - -
21/03:00pm 18.6 NNW 9 14 1011.1 - 0.4 - - 10 - - - -
21/02:30pm 18.2 N 11 15 1011.2 - 0.4 - - 10 - - - -
21/02:00pm 18.0 N 11 16 1011.5 - 0.4 - - 10 - - - -
21/01:30pm 17.9 N 11 15 1012.0 - 0.4 - - 10 - - - -
21/01:00pm 17.1 NNE 10 13 1012.5 - 0.4 - - 10 - - - -
21/12:30pm 16.6 NNE 9 13 1013.5 - 0.4 - Partly cloudy 10 - - - -
21/12:00pm 16.2 N 8 13 1014.1 - 0.4 - - 10 - - - -
21/11:30am 14.8 NNE 7 11 1014.4 - 0.4 - Partly cloudy 10 - - - -

Other Formats:

Comma delimited format used in spreadsheet applications
http://www.bom.gov.au/fwo/IDV60701/IDV60701.94865.axf

JavaScript Object Notation format (JSON) in row-major order
http://www.bom.gov.au/fwo/IDV60701/IDV60701.94865.json